Terminal Aerodrome Forecast
Issued by NWS Charleston, WV

Current Version | Previous Version | Text Only | Print | Product List | Glossary Off
Versions: 1 2 3 4 5 6 7 8 9 10 11 12 13 14 15 16 17 18 19 20 21 22 23 24 25 26

203
FTUS41 KRLX 261139
TAFHTS
TAF
KHTS 261139Z 2612/2712 00000KT 4SM BR FEW002
     FM261300 VRB03KT P6SM FEW025
     FM261700 VRB05KT P6SM SCT040
     FM271000 00000KT 5SM BR SKC=

USA.gov is the U.S. government's official web portal to all federal, state and local government web resources and services.